| time (UTC) | temp F | wind direction | speed MPH | gust MPH | rain 1hr in | rain 24hr in | rain mn in | humidity % | barometer mb |
| 20260510141933 | 72 | 136 | 1.0 | 3.0 | 0.00 | 0.00 | 0.00 | 56 | 1009.8 |
| 20260510134933 | 63 | 281 | 0.0 | 2.0 | 0.00 | 0.00 | 0.00 | 71 | 1010.4 |
| 20260510131933 | 63 | 281 | 0.0 | 2.0 | 0.00 | 0.00 | 0.00 | 71 | 1010.4 |
| 20260510124933 | 48 | 15 | 0.0 | 1.0 | 0.00 | 0.00 | 0.00 | 96 | 1011.1 |
| 20260510121933 | 48 | 15 | 0.0 | 1.0 | 0.00 | 0.00 | 0.00 | 96 | 1011.1 |
| 20260510114933 | 48 | 15 | 0.0 | 1.0 | 0.00 | 0.00 | 0.00 | 96 | 1011.1 |
| 20260510111932 | 47 | 108 | 0.0 | 1.0 | 0.00 | 0.00 | 0.00 | 94 | 1009.8 |
| 20260510104932 | 47 | 108 | 0.0 | 1.0 | 0.00 | 0.00 | 0.00 | 94 | 1009.8 |
| 20260510101932 | 47 | 108 | 0.0 | 1.0 | 0.00 | 0.00 | 0.00 | 94 | 1009.8 |
| 20260510094932 | 47 | 108 | 0.0 | 1.0 | 0.00 | 0.00 | 0.00 | 94 | 1009.8 |
| 20260510091932 | 49 | 25 | 0.0 | 1.0 | 0.00 | 0.00 | 0.00 | 90 | 1009.1 |
| 20260510084932 | 49 | 25 | 0.0 | 1.0 | 0.00 | 0.00 | 0.00 | 90 | 1009.1 |
| 20260510081932 | 49 | 25 | 0.0 | 1.0 | 0.00 | 0.00 | 0.00 | 90 | 1009.1 |
| 20260510074932 | 49 | 25 | 0.0 | 1.0 | 0.00 | 0.00 | 0.00 | 90 | 1009.1 |
| 20260510071932 | 51 | 333 | 0.0 | 1.0 | 0.00 | 0.00 | 0.00 | 87 | 1009.0 |
| 20260510064932 | 51 | 333 | 0.0 | 1.0 | 0.00 | 0.00 | 0.00 | 87 | 1009.0 |
| 20260510061932 | 52 | 324 | 0.0 | 1.0 | 0.00 | 0.00 | 0.00 | 82 | 1009.0 |
| 20260510054932 | 52 | 324 | 0.0 | 1.0 | 0.00 | 0.00 | 0.00 | 82 | 1009.0 |
| 20260510051932 | 55 | 351 | 0.0 | 1.0 | 0.00 | 0.00 | 0.00 | 77 | 1008.7 |
| 20260510044932 | 55 | 351 | 0.0 | 1.0 | 0.00 | 0.00 | 0.00 | 77 | 1008.7 |
| 20260510041932 | 57 | 44 | 0.0 | 2.0 | 0.00 | 0.00 | 0.00 | 70 | 1008.0 |
| 20260510034932 | 57 | 44 | 0.0 | 2.0 | 0.00 | 0.00 | 0.00 | 70 | 1008.0 |
| 20260510031932 | 63 | 257 | 1.0 | 2.0 | 0.00 | 0.00 | 0.00 | 58 | 1006.1 |
| 20260510024932 | 63 | 257 | 1.0 | 2.0 | 0.00 | 0.00 | 0.00 | 58 | 1006.1 |
| 20260510021932 | 63 | 257 | 1.0 | 2.0 | 0.00 | 0.00 | 0.00 | 58 | 1006.1 |
| 20260510014932 | 63 | 257 | 1.0 | 2.0 | 0.00 | 0.00 | 0.00 | 58 | 1006.1 |
| 20260510011932 | 64 | 314 | 0.0 | 1.0 | 0.00 | 0.00 | 0.00 | 57 | 1005.9 |
| 20260510004932 | 65 | 331 | 0.0 | 1.0 | 0.00 | 0.00 | 0.00 | 56 | 1005.8 |
| 20260510001932 | 68 | 326 | 0.0 | 1.0 | 0.00 | 0.00 | 0.00 | 49 | 1005.2 |
| 20260509234932 | 71 | 336 | 0.0 | 2.0 | 0.00 | 0.00 | 0.00 | 45 | 1004.3 |
| 20260509231932 | 71 | 317 | 0.0 | 2.0 | 0.00 | 0.00 | 0.00 | 45 | 1004.2 |
| 20260509224932 | 74 | 328 | 0.0 | 2.0 | 0.00 | 0.00 | 0.00 | 47 | 1003.6 |
| 20260509221932 | 74 | 328 | 0.0 | 2.0 | 0.00 | 0.00 | 0.00 | 47 | 1003.6 |
| 20260509214932 | 74 | 249 | 2.0 | 3.0 | 0.00 | 0.00 | 0.00 | 42 | 1003.3 |
| 20260509211932 | 77 | 253 | 1.0 | 7.0 | 0.00 | 0.00 | 0.00 | 41 | 1002.9 |
| 20260509204932 | 77 | 253 | 1.0 | 7.0 | 0.00 | 0.00 | 0.00 | 41 | 1002.9 |
| 20260509201932 | 77 | 253 | 1.0 | 7.0 | 0.00 | 0.00 | 0.00 | 41 | 1002.9 |
| 20260509194932 | 77 | 253 | 1.0 | 7.0 | 0.00 | 0.00 | 0.00 | 41 | 1002.9 |
| 20260509191932 | 77 | 253 | 1.0 | 7.0 | 0.00 | 0.00 | 0.00 | 41 | 1002.9 |
| 20260509184932 | 75 | 269 | 1.0 | 3.0 | 0.00 | 0.00 | 0.00 | 42 | 1003.2 |
| 20260509181932 | 75 | 263 | 1.0 | 4.0 | 0.00 | 0.00 | 0.00 | 43 | 1003.5 |
| 20260509174932 | 74 | 193 | 2.0 | 6.0 | 0.00 | 0.00 | 0.00 | 49 | 1004.1 |
| 20260509171932 | 62 | 321 | 0.0 | 2.0 | 0.00 | 0.00 | 0.00 | 66 | 1006.4 |
| 20260509164932 | 62 | 321 | 0.0 | 2.0 | 0.00 | 0.00 | 0.00 | 66 | 1006.4 |
| 20260509161932 | 62 | 321 | 0.0 | 2.0 | 0.00 | 0.00 | 0.00 | 66 | 1006.4 |
| 20260509154932 | 62 | 321 | 0.0 | 2.0 | 0.00 | 0.00 | 0.00 | 66 | 1006.4 |
| 20260509151932 | 62 | 321 | 0.0 | 2.0 | 0.00 | 0.00 | 0.00 | 66 | 1006.4 |
| 20260509144932 | 62 | 321 | 0.0 | 2.0 | 0.00 | 0.00 | 0.00 | 66 | 1006.4 |